sensor_id;sensor_type;location;lat;lon;timestamp;P1;durP1;ratioP1;P2;durP2;ratioP2
21503;SDS011;10913;51.992;9.228;2023-12-28T00:01:08;4.75;;;2.75;;
21503;SDS011;10913;51.992;9.228;2023-12-28T00:03:33;4.47;;;2.85;;
21503;SDS011;10913;51.992;9.228;2023-12-28T00:05:59;4.40;;;2.75;;
21503;SDS011;10913;51.992;9.228;2023-12-28T00:08:24;3.88;;;2.70;;
21503;SDS011;10913;51.992;9.228;2023-12-28T00:10:50;3.50;;;2.25;;
21503;SDS011;10913;51.992;9.228;2023-12-28T00:13:16;5.45;;;2.53;;
21503;SDS011;10913;51.992;9.228;2023-12-28T00:15:41;4.30;;;2.60;;
21503;SDS011;10913;51.992;9.228;2023-12-28T00:18:06;3.97;;;2.30;;
21503;SDS011;10913;51.992;9.228;2023-12-28T00:20:32;3.55;;;2.30;;
21503;SDS011;10913;51.992;9.228;2023-12-28T00:22:57;3.20;;;2.20;;
21503;SDS011;10913;51.992;9.228;2023-12-28T00:25:23;4.35;;;2.50;;
21503;SDS011;10913;51.992;9.228;2023-12-28T00:27:48;2.85;;;2.30;;
21503;SDS011;10913;51.992;9.228;2023-12-28T00:30:14;3.50;;;2.28;;
21503;SDS011;10913;51.992;9.228;2023-12-28T00:32:39;5.30;;;2.28;;
21503;SDS011;10913;51.992;9.228;2023-12-28T00:35:08;6.25;;;2.70;;
21503;SDS011;10913;51.992;9.228;2023-12-28T00:37:34;3.75;;;2.50;;
21503;SDS011;10913;51.992;9.228;2023-12-28T00:39:59;3.80;;;2.30;;
21503;SDS011;10913;51.992;9.228;2023-12-28T00:42:24;7.35;;;2.40;;
21503;SDS011;10913;51.992;9.228;2023-12-28T00:44:50;3.58;;;2.83;;
21503;SDS011;10913;51.992;9.228;2023-12-28T00:47:15;6.07;;;2.60;;
21503;SDS011;10913;51.992;9.228;2023-12-28T00:49:40;3.83;;;2.17;;
21503;SDS011;10913;51.992;9.228;2023-12-28T00:52:06;3.03;;;2.10;;
21503;SDS011;10913;51.992;9.228;2023-12-28T00:54:31;2.67;;;2.20;;
21503;SDS011;10913;51.992;9.228;2023-12-28T00:56:56;3.67;;;2.08;;
21503;SDS011;10913;51.992;9.228;2023-12-28T00:59:22;2.47;;;2.20;;
21503;SDS011;10913;51.992;9.228;2023-12-28T01:01:47;2.72;;;2.08;;
21503;SDS011;10913;51.992;9.228;2023-12-28T01:04:12;5.05;;;2.63;;
21503;SDS011;10913;51.992;9.228;2023-12-28T01:06:38;5.85;;;2.38;;
21503;SDS011;10913;51.992;9.228;2023-12-28T01:09:03;3.88;;;2.30;;
21503;SDS011;10913;51.992;9.228;2023-12-28T01:11:28;3.33;;;2.10;;
21503;SDS011;10913;51.992;9.228;2023-12-28T01:13:54;4.68;;;2.70;;
21503;SDS011;10913;51.992;9.228;2023-12-28T01:16:19;3.33;;;2.80;;
21503;SDS011;10913;51.992;9.228;2023-12-28T01:18:45;4.05;;;2.50;;
21503;SDS011;10913;51.992;9.228;2023-12-28T01:21:10;4.47;;;2.45;;
21503;SDS011;10913;51.992;9.228;2023-12-28T01:23:35;3.58;;;2.47;;
21503;SDS011;10913;51.992;9.228;2023-12-28T01:26:01;3.45;;;2.45;;
21503;SDS011;10913;51.992;9.228;2023-12-28T01:28:26;4.28;;;2.33;;
21503;SDS011;10913;51.992;9.228;2023-12-28T01:30:52;4.22;;;2.30;;
21503;SDS011;10913;51.992;9.228;2023-12-28T01:33:17;2.85;;;2.40;;
21503;SDS011;10913;51.992;9.228;2023-12-28T01:35:42;2.95;;;2.30;;
21503;SDS011;10913;51.992;9.228;2023-12-28T01:38:08;2.50;;;2.10;;
21503;SDS011;10913;51.992;9.228;2023-12-28T01:40:33;3.08;;;2.45;;
21503;SDS011;10913;51.992;9.228;2023-12-28T01:42:59;2.65;;;2.22;;
21503;SDS011;10913;51.992;9.228;2023-12-28T01:45:24;3.67;;;2.35;;
21503;SDS011;10913;51.992;9.228;2023-12-28T01:47:49;3.25;;;2.50;;
21503;SDS011;10913;51.992;9.228;2023-12-28T01:50:17;5.10;;;2.60;;
21503;SDS011;10913;51.992;9.228;2023-12-28T01:52:43;5.82;;;2.50;;
21503;SDS011;10913;51.992;9.228;2023-12-28T01:55:08;3.25;;;2.25;;
21503;SDS011;10913;51.992;9.228;2023-12-28T01:57:34;4.43;;;2.50;;
21503;SDS011;10913;51.992;9.228;2023-12-28T01:59:59;5.75;;;3.00;;
21503;SDS011;10913;51.992;9.228;2023-12-28T02:02:27;4.97;;;2.83;;
21503;SDS011;10913;51.992;9.228;2023-12-28T02:04:53;4.57;;;2.70;;
21503;SDS011;10913;51.992;9.228;2023-12-28T02:07:19;3.08;;;2.40;;
21503;SDS011;10913;51.992;9.228;2023-12-28T02:09:45;4.20;;;2.63;;
21503;SDS011;10913;51.992;9.228;2023-12-28T02:12:11;4.30;;;3.10;;
21503;SDS011;10913;51.992;9.228;2023-12-28T02:14:37;5.30;;;2.60;;
21503;SDS011;10913;51.992;9.228;2023-12-28T02:19:54;4.35;;;2.58;;
21503;SDS011;10913;51.992;9.228;2023-12-28T02:22:19;4.50;;;2.95;;
21503;SDS011;10913;51.992;9.228;2023-12-28T02:27:43;3.78;;;2.60;;
21503;SDS011;10913;51.992;9.228;2023-12-28T02:30:11;4.40;;;2.60;;
21503;SDS011;10913;51.992;9.228;2023-12-28T02:32:39;4.00;;;2.08;;
21503;SDS011;10913;51.992;9.228;2023-12-28T02:35:33;3.38;;;2.50;;
21503;SDS011;10913;51.992;9.228;2023-12-28T02:38:10;5.57;;;2.50;;
21503;SDS011;10913;51.992;9.228;2023-12-28T02:40:39;4.50;;;2.55;;
21503;SDS011;10913;51.992;9.228;2023-12-28T02:43:07;3.30;;;2.47;;
21503;SDS011;10913;51.992;9.228;2023-12-28T02:45:33;3.92;;;2.40;;
21503;SDS011;10913;51.992;9.228;2023-12-28T02:47:59;2.83;;;2.53;;
21503;SDS011;10913;51.992;9.228;2023-12-28T02:50:24;3.97;;;2.40;;
21503;SDS011;10913;51.992;9.228;2023-12-28T02:52:49;3.58;;;2.35;;
21503;SDS011;10913;51.992;9.228;2023-12-28T02:55:15;2.95;;;2.28;;
21503;SDS011;10913;51.992;9.228;2023-12-28T02:57:40;3.10;;;1.92;;
21503;SDS011;10913;51.992;9.228;2023-12-28T03:00:06;4.80;;;2.42;;
21503;SDS011;10913;51.992;9.228;2023-12-28T03:02:34;3.97;;;2.13;;
21503;SDS011;10913;51.992;9.228;2023-12-28T03:05:01;3.47;;;2.38;;
21503;SDS011;10913;51.992;9.228;2023-12-28T03:07:26;2.40;;;2.20;;
21503;SDS011;10913;51.992;9.228;2023-12-28T03:09:51;3.33;;;2.50;;
21503;SDS011;10913;51.992;9.228;2023-12-28T03:12:17;3.42;;;2.40;;
21503;SDS011;10913;51.992;9.228;2023-12-28T03:14:42;2.90;;;2.25;;
21503;SDS011;10913;51.992;9.228;2023-12-28T03:17:07;4.43;;;2.80;;
21503;SDS011;10913;51.992;9.228;2023-12-28T03:19:33;2.47;;;2.17;;
21503;SDS011;10913;51.992;9.228;2023-12-28T03:21:58;3.35;;;2.20;;
21503;SDS011;10913;51.992;9.228;2023-12-28T03:24:23;2.80;;;2.30;;
21503;SDS011;10913;51.992;9.228;2023-12-28T03:26:49;3.55;;;2.20;;
21503;SDS011;10913;51.992;9.228;2023-12-28T03:29:14;2.55;;;2.30;;
21503;SDS011;10913;51.992;9.228;2023-12-28T03:31:39;3.22;;;2.58;;
21503;SDS011;10913;51.992;9.228;2023-12-28T03:34:05;2.70;;;2.40;;
21503;SDS011;10913;51.992;9.228;2023-12-28T03:36:31;3.22;;;2.20;;
21503;SDS011;10913;51.992;9.228;2023-12-28T03:38:56;2.63;;;2.30;;
21503;SDS011;10913;51.992;9.228;2023-12-28T03:41:21;3.35;;;2.42;;
21503;SDS011;10913;51.992;9.228;2023-12-28T03:43:47;3.45;;;2.85;;
21503;SDS011;10913;51.992;9.228;2023-12-28T03:46:13;2.20;;;2.00;;
21503;SDS011;10913;51.992;9.228;2023-12-28T03:48:39;3.50;;;2.50;;
21503;SDS011;10913;51.992;9.228;2023-12-28T03:51:05;5.18;;;2.80;;
21503;SDS011;10913;51.992;9.228;2023-12-28T03:53:30;2.90;;;2.60;;
21503;SDS011;10913;51.992;9.228;2023-12-28T03:55:59;3.95;;;2.53;;
21503;SDS011;10913;51.992;9.228;2023-12-28T03:58:24;2.78;;;2.42;;
21503;SDS011;10913;51.992;9.228;2023-12-28T04:00:50;4.47;;;2.58;;
21503;SDS011;10913;51.992;9.228;2023-12-28T04:03:15;2.72;;;2.53;;
21503;SDS011;10913;51.992;9.228;2023-12-28T04:05:42;3.10;;;2.40;;
21503;SDS011;10913;51.992;9.228;2023-12-28T04:08:08;3.03;;;2.40;;
21503;SDS011;10913;51.992;9.228;2023-12-28T04:10:33;4.20;;;2.70;;
21503;SDS011;10913;51.992;9.228;2023-12-28T04:12:58;4.07;;;2.30;;
21503;SDS011;10913;51.992;9.228;2023-12-28T04:15:28;2.53;;;2.33;;
21503;SDS011;10913;51.992;9.228;2023-12-28T04:17:54;4.40;;;2.88;;
21503;SDS011;10913;51.992;9.228;2023-12-28T04:20:19;2.90;;;2.22;;
21503;SDS011;10913;51.992;9.228;2023-12-28T04:22:48;5.35;;;2.83;;
21503;SDS011;10913;51.992;9.228;2023-12-28T04:25:13;4.45;;;2.83;;
21503;SDS011;10913;51.992;9.228;2023-12-28T04:27:41;5.45;;;2.70;;
21503;SDS011;10913;51.992;9.228;2023-12-28T04:30:07;4.22;;;2.70;;
21503;SDS011;10913;51.992;9.228;2023-12-28T04:32:32;3.45;;;2.63;;
21503;SDS011;10913;51.992;9.228;2023-12-28T04:34:58;4.13;;;2.50;;
21503;SDS011;10913;51.992;9.228;2023-12-28T04:37:23;4.50;;;2.97;;
21503;SDS011;10913;51.992;9.228;2023-12-28T04:39:49;4.20;;;2.42;;
21503;SDS011;10913;51.992;9.228;2023-12-28T04:42:14;4.28;;;2.50;;
21503;SDS011;10913;51.992;9.228;2023-12-28T04:44:40;4.35;;;2.58;;
21503;SDS011;10913;51.992;9.228;2023-12-28T04:47:05;3.55;;;2.60;;
21503;SDS011;10913;51.992;9.228;2023-12-28T04:49:31;3.45;;;2.28;;
21503;SDS011;10913;51.992;9.228;2023-12-28T04:51:56;3.13;;;2.22;;
21503;SDS011;10913;51.992;9.228;2023-12-28T04:54:22;4.05;;;2.45;;
21503;SDS011;10913;51.992;9.228;2023-12-28T04:56:47;3.50;;;2.40;;
21503;SDS011;10913;51.992;9.228;2023-12-28T04:59:13;3.75;;;2.30;;
21503;SDS011;10913;51.992;9.228;2023-12-28T05:01:42;3.65;;;2.30;;
21503;SDS011;10913;51.992;9.228;2023-12-28T05:04:08;4.53;;;2.10;;
21503;SDS011;10913;51.992;9.228;2023-12-28T05:06:33;2.35;;;1.88;;
21503;SDS011;10913;51.992;9.228;2023-12-28T05:08:59;2.67;;;2.13;;
21503;SDS011;10913;51.992;9.228;2023-12-28T05:11:24;2.67;;;2.13;;
21503;SDS011;10913;51.992;9.228;2023-12-28T05:13:49;3.50;;;2.10;;
21503;SDS011;10913;51.992;9.228;2023-12-28T05:16:15;3.25;;;1.85;;
21503;SDS011;10913;51.992;9.228;2023-12-28T05:18:40;3.70;;;2.20;;
21503;SDS011;10913;51.992;9.228;2023-12-28T05:21:05;4.32;;;1.90;;
21503;SDS011;10913;51.992;9.228;2023-12-28T05:23:31;2.30;;;1.90;;
21503;SDS011;10913;51.992;9.228;2023-12-28T05:25:56;2.55;;;1.60;;
21503;SDS011;10913;51.992;9.228;2023-12-28T05:28:21;3.88;;;1.98;;
21503;SDS011;10913;51.992;9.228;2023-12-28T05:30:47;3.75;;;2.03;;
21503;SDS011;10913;51.992;9.228;2023-12-28T05:33:12;3.75;;;1.90;;
21503;SDS011;10913;51.992;9.228;2023-12-28T05:35:38;3.65;;;1.80;;
21503;SDS011;10913;51.992;9.228;2023-12-28T05:38:03;2.83;;;1.52;;
21503;SDS011;10913;51.992;9.228;2023-12-28T05:40:29;3.80;;;1.77;;
21503;SDS011;10913;51.992;9.228;2023-12-28T05:42:55;1.95;;;1.65;;
21503;SDS011;10913;51.992;9.228;2023-12-28T05:45:20;2.20;;;2.00;;
21503;SDS011;10913;51.992;9.228;2023-12-28T05:47:45;1.85;;;1.60;;
21503;SDS011;10913;51.992;9.228;2023-12-28T05:50:11;2.75;;;1.80;;
21503;SDS011;10913;51.992;9.228;2023-12-28T05:52:37;1.83;;;1.70;;
21503;SDS011;10913;51.992;9.228;2023-12-28T05:55:02;3.22;;;1.92;;
21503;SDS011;10913;51.992;9.228;2023-12-28T05:57:29;2.88;;;1.80;;
21503;SDS011;10913;51.992;9.228;2023-12-28T05:59:55;4.72;;;2.28;;
21503;SDS011;10913;51.992;9.228;2023-12-28T06:02:20;2.60;;;1.90;;
21503;SDS011;10913;51.992;9.228;2023-12-28T06:04:46;4.22;;;1.90;;
21503;SDS011;10913;51.992;9.228;2023-12-28T06:07:11;2.78;;;1.80;;
21503;SDS011;10913;51.992;9.228;2023-12-28T06:09:37;2.70;;;1.73;;
21503;SDS011;10913;51.992;9.228;2023-12-28T06:12:04;2.22;;;1.77;;
21503;SDS011;10913;51.992;9.228;2023-12-28T06:14:30;3.33;;;1.83;;
21503;SDS011;10913;51.992;9.228;2023-12-28T06:16:55;3.63;;;1.70;;
21503;SDS011;10913;51.992;9.228;2023-12-28T06:19:20;4.28;;;2.00;;
21503;SDS011;10913;51.992;9.228;2023-12-28T06:21:47;2.63;;;1.92;;
21503;SDS011;10913;51.992;9.228;2023-12-28T06:24:13;2.92;;;1.60;;
21503;SDS011;10913;51.992;9.228;2023-12-28T06:26:39;2.90;;;2.00;;
21503;SDS011;10913;51.992;9.228;2023-12-28T06:29:08;2.83;;;1.70;;
21503;SDS011;10913;51.992;9.228;2023-12-28T06:31:34;2.47;;;1.90;;
21503;SDS011;10913;51.992;9.228;2023-12-28T06:34:04;2.75;;;1.70;;
21503;SDS011;10913;51.992;9.228;2023-12-28T06:36:32;3.72;;;1.77;;
21503;SDS011;10913;51.992;9.228;2023-12-28T06:38:58;3.90;;;2.00;;
21503;SDS011;10913;51.992;9.228;2023-12-28T06:41:26;3.38;;;2.05;;
21503;SDS011;10913;51.992;9.228;2023-12-28T06:43:52;3.30;;;2.10;;
21503;SDS011;10913;51.992;9.228;2023-12-28T06:46:18;2.47;;;1.92;;
21503;SDS011;10913;51.992;9.228;2023-12-28T06:48:44;3.08;;;1.95;;
21503;SDS011;10913;51.992;9.228;2023-12-28T06:51:10;3.72;;;1.92;;
21503;SDS011;10913;51.992;9.228;2023-12-28T06:53:41;2.50;;;1.73;;
21503;SDS011;10913;51.992;9.228;2023-12-28T06:56:06;2.92;;;2.05;;
21503;SDS011;10913;51.992;9.228;2023-12-28T06:58:32;2.80;;;1.70;;
21503;SDS011;10913;51.992;9.228;2023-12-28T07:00:58;2.88;;;1.90;;
21503;SDS011;10913;51.992;9.228;2023-12-28T07:03:23;3.60;;;1.92;;
21503;SDS011;10913;51.992;9.228;2023-12-28T07:05:50;2.90;;;2.00;;
21503;SDS011;10913;51.992;9.228;2023-12-28T07:08:16;5.03;;;2.05;;
21503;SDS011;10913;51.992;9.228;2023-12-28T07:10:41;3.63;;;1.50;;
21503;SDS011;10913;51.992;9.228;2023-12-28T07:13:06;4.03;;;1.95;;
21503;SDS011;10913;51.992;9.228;2023-12-28T07:15:32;4.53;;;2.40;;
21503;SDS011;10913;51.992;9.228;2023-12-28T07:17:57;3.00;;;1.90;;
21503;SDS011;10913;51.992;9.228;2023-12-28T07:20:22;2.95;;;1.85;;
21503;SDS011;10913;51.992;9.228;2023-12-28T07:22:48;2.33;;;1.90;;
21503;SDS011;10913;51.992;9.228;2023-12-28T07:25:13;2.75;;;1.70;;
21503;SDS011;10913;51.992;9.228;2023-12-28T07:27:38;4.07;;;2.30;;
21503;SDS011;10913;51.992;9.228;2023-12-28T07:30:04;3.42;;;2.13;;
21503;SDS011;10913;51.992;9.228;2023-12-28T07:32:32;4.32;;;1.95;;
21503;SDS011;10913;51.992;9.228;2023-12-28T07:34:57;3.45;;;1.80;;
21503;SDS011;10913;51.992;9.228;2023-12-28T07:37:24;3.35;;;2.20;;
21503;SDS011;10913;51.992;9.228;2023-12-28T07:39:49;3.80;;;2.20;;
21503;SDS011;10913;51.992;9.228;2023-12-28T07:42:15;4.70;;;1.92;;
21503;SDS011;10913;51.992;9.228;2023-12-28T07:44:40;3.17;;;2.15;;
21503;SDS011;10913;51.992;9.228;2023-12-28T07:47:06;3.22;;;1.92;;
21503;SDS011;10913;51.992;9.228;2023-12-28T07:49:31;2.88;;;2.00;;
21503;SDS011;10913;51.992;9.228;2023-12-28T07:51:57;2.40;;;1.88;;
21503;SDS011;10913;51.992;9.228;2023-12-28T07:54:22;4.35;;;1.90;;
21503;SDS011;10913;51.992;9.228;2023-12-28T07:56:47;3.92;;;1.73;;
21503;SDS011;10913;51.992;9.228;2023-12-28T07:59:13;2.83;;;1.90;;
21503;SDS011;10913;51.992;9.228;2023-12-28T08:01:38;4.40;;;2.80;;
21503;SDS011;10913;51.992;9.228;2023-12-28T08:04:04;5.40;;;2.47;;
21503;SDS011;10913;51.992;9.228;2023-12-28T08:06:29;3.55;;;2.10;;
21503;SDS011;10913;51.992;9.228;2023-12-28T08:08:57;2.08;;;1.70;;
21503;SDS011;10913;51.992;9.228;2023-12-28T08:11:24;3.65;;;1.88;;
21503;SDS011;10913;51.992;9.228;2023-12-28T08:13:49;3.38;;;2.03;;
21503;SDS011;10913;51.992;9.228;2023-12-28T08:16:15;3.85;;;1.83;;
21503;SDS011;10913;51.992;9.228;2023-12-28T08:18:40;5.65;;;2.20;;
21503;SDS011;10913;51.992;9.228;2023-12-28T08:21:05;2.47;;;1.70;;
21503;SDS011;10913;51.992;9.228;2023-12-28T08:23:31;4.35;;;2.25;;
21503;SDS011;10913;51.992;9.228;2023-12-28T08:25:56;2.38;;;1.83;;
21503;SDS011;10913;51.992;9.228;2023-12-28T08:28:21;3.25;;;1.88;;
21503;SDS011;10913;51.992;9.228;2023-12-28T08:30:48;3.30;;;1.83;;
21503;SDS011;10913;51.992;9.228;2023-12-28T08:33:13;2.75;;;1.90;;
21503;SDS011;10913;51.992;9.228;2023-12-28T08:35:39;3.28;;;2.05;;
21503;SDS011;10913;51.992;9.228;2023-12-28T08:38:04;4.82;;;2.10;;
21503;SDS011;10913;51.992;9.228;2023-12-28T08:40:31;3.80;;;1.92;;
21503;SDS011;10913;51.992;9.228;2023-12-28T08:42:56;3.95;;;2.05;;
21503;SDS011;10913;51.992;9.228;2023-12-28T08:45:22;3.15;;;1.88;;
21503;SDS011;10913;51.992;9.228;2023-12-28T08:47:47;4.63;;;1.90;;
21503;SDS011;10913;51.992;9.228;2023-12-28T08:50:12;4.97;;;1.90;;
21503;SDS011;10913;51.992;9.228;2023-12-28T08:52:38;5.25;;;2.20;;
21503;SDS011;10913;51.992;9.228;2023-12-28T08:55:04;4.72;;;2.00;;
21503;SDS011;10913;51.992;9.228;2023-12-28T08:57:30;4.28;;;1.75;;
21503;SDS011;10913;51.992;9.228;2023-12-28T08:59:56;2.38;;;1.73;;
21503;SDS011;10913;51.992;9.228;2023-12-28T09:02:22;3.83;;;2.22;;
21503;SDS011;10913;51.992;9.228;2023-12-28T09:04:48;2.97;;;1.80;;
21503;SDS011;10913;51.992;9.228;2023-12-28T09:07:13;3.42;;;1.77;;
21503;SDS011;10913;51.992;9.228;2023-12-28T09:09:39;2.92;;;2.00;;
21503;SDS011;10913;51.992;9.228;2023-12-28T09:12:05;3.67;;;1.98;;
21503;SDS011;10913;51.992;9.228;2023-12-28T09:14:30;3.00;;;1.55;;
21503;SDS011;10913;51.992;9.228;2023-12-28T09:16:55;2.38;;;1.75;;
21503;SDS011;10913;51.992;9.228;2023-12-28T09:19:21;3.92;;;1.80;;
21503;SDS011;10913;51.992;9.228;2023-12-28T09:21:47;4.60;;;1.88;;
21503;SDS011;10913;51.992;9.228;2023-12-28T09:24:13;4.85;;;2.20;;
21503;SDS011;10913;51.992;9.228;2023-12-28T09:26:40;2.83;;;1.67;;
21503;SDS011;10913;51.992;9.228;2023-12-28T09:29:06;4.43;;;2.00;;
21503;SDS011;10913;51.992;9.228;2023-12-28T09:31:31;3.88;;;1.80;;
21503;SDS011;10913;51.992;9.228;2023-12-28T09:33:57;3.80;;;1.70;;
21503;SDS011;10913;51.992;9.228;2023-12-28T09:36:22;3.67;;;1.90;;
21503;SDS011;10913;51.992;9.228;2023-12-28T09:38:48;4.35;;;1.98;;
21503;SDS011;10913;51.992;9.228;2023-12-28T09:41:13;3.42;;;1.90;;
21503;SDS011;10913;51.992;9.228;2023-12-28T09:44:03;4.30;;;1.92;;
21503;SDS011;10913;51.992;9.228;2023-12-28T09:46:34;4.70;;;2.50;;
21503;SDS011;10913;51.992;9.228;2023-12-28T09:49:00;3.88;;;2.00;;
21503;SDS011;10913;51.992;9.228;2023-12-28T09:51:26;4.03;;;1.83;;
21503;SDS011;10913;51.992;9.228;2023-12-28T09:53:55;2.97;;;1.77;;
21503;SDS011;10913;51.992;9.228;2023-12-28T09:56:23;4.15;;;1.77;;
21503;SDS011;10913;51.992;9.228;2023-12-28T09:58:50;5.50;;;1.73;;
21503;SDS011;10913;51.992;9.228;2023-12-28T10:01:17;3.90;;;1.67;;
21503;SDS011;10913;51.992;9.228;2023-12-28T10:03:43;3.75;;;1.80;;
21503;SDS011;10913;51.992;9.228;2023-12-28T10:06:09;5.05;;;1.80;;
21503;SDS011;10913;51.992;9.228;2023-12-28T10:08:34;4.72;;;1.70;;
21503;SDS011;10913;51.992;9.228;2023-12-28T10:11:01;7.63;;;1.90;;
21503;SDS011;10913;51.992;9.228;2023-12-28T10:13:28;5.28;;;2.17;;
21503;SDS011;10913;51.992;9.228;2023-12-28T10:15:58;6.20;;;2.15;;
21503;SDS011;10913;51.992;9.228;2023-12-28T10:18:24;5.75;;;1.85;;
21503;SDS011;10913;51.992;9.228;2023-12-28T10:20:49;4.65;;;1.85;;
21503;SDS011;10913;51.992;9.228;2023-12-28T10:23:16;5.50;;;2.00;;
21503;SDS011;10913;51.992;9.228;2023-12-28T10:25:43;3.85;;;1.70;;
21503;SDS011;10913;51.992;9.228;2023-12-28T10:28:09;4.15;;;1.80;;
21503;SDS011;10913;51.992;9.228;2023-12-28T10:30:37;4.68;;;1.90;;
21503;SDS011;10913;51.992;9.228;2023-12-28T10:33:04;5.30;;;2.33;;
21503;SDS011;10913;51.992;9.228;2023-12-28T10:35:30;6.05;;;1.90;;
21503;SDS011;10913;51.992;9.228;2023-12-28T10:37:55;4.85;;;1.90;;
21503;SDS011;10913;51.992;9.228;2023-12-28T10:40:29;6.55;;;2.33;;
21503;SDS011;10913;51.992;9.228;2023-12-28T10:43:01;6.72;;;2.17;;
21503;SDS011;10913;51.992;9.228;2023-12-28T10:45:29;6.35;;;2.17;;
21503;SDS011;10913;51.992;9.228;2023-12-28T10:48:10;5.72;;;2.15;;
21503;SDS011;10913;51.992;9.228;2023-12-28T10:50:40;5.90;;;1.95;;
21503;SDS011;10913;51.992;9.228;2023-12-28T10:53:52;4.50;;;1.88;;
21503;SDS011;10913;51.992;9.228;2023-12-28T10:58:45;8.85;;;2.15;;
21503;SDS011;10913;51.992;9.228;2023-12-28T11:01:15;6.00;;;2.10;;
21503;SDS011;10913;51.992;9.228;2023-12-28T11:03:50;5.25;;;1.98;;
21503;SDS011;10913;51.992;9.228;2023-12-28T11:06:22;6.57;;;2.20;;
21503;SDS011;10913;51.992;9.228;2023-12-28T11:08:50;6.78;;;2.00;;
21503;SDS011;10913;51.992;9.228;2023-12-28T11:11:18;4.82;;;2.03;;
21503;SDS011;10913;51.992;9.228;2023-12-28T11:13:44;6.43;;;2.10;;
21503;SDS011;10913;51.992;9.228;2023-12-28T11:16:11;6.72;;;2.40;;
21503;SDS011;10913;51.992;9.228;2023-12-28T11:18:38;5.43;;;2.22;;
21503;SDS011;10913;51.992;9.228;2023-12-28T11:21:03;4.97;;;1.77;;
21503;SDS011;10913;51.992;9.228;2023-12-28T11:23:29;4.55;;;1.67;;
21503;SDS011;10913;51.992;9.228;2023-12-28T11:25:55;7.68;;;2.20;;
21503;SDS011;10913;51.992;9.228;2023-12-28T11:28:20;5.75;;;1.80;;
21503;SDS011;10913;51.992;9.228;2023-12-28T11:30:48;5.07;;;2.05;;
21503;SDS011;10913;51.992;9.228;2023-12-28T11:33:14;5.97;;;2.08;;
21503;SDS011;10913;51.992;9.228;2023-12-28T11:35:39;8.95;;;2.50;;
21503;SDS011;10913;51.992;9.228;2023-12-28T11:38:08;5.72;;;1.88;;
21503;SDS011;10913;51.992;9.228;2023-12-28T11:40:42;8.25;;;2.22;;
21503;SDS011;10913;51.992;9.228;2023-12-28T11:43:19;5.40;;;1.85;;
21503;SDS011;10913;51.992;9.228;2023-12-28T11:45:50;5.93;;;2.00;;
21503;SDS011;10913;51.992;9.228;2023-12-28T11:48:23;8.50;;;2.42;;
21503;SDS011;10913;51.992;9.228;2023-12-28T11:50:51;6.68;;;2.15;;
21503;SDS011;10913;51.992;9.228;2023-12-28T11:53:19;6.53;;;2.22;;
21503;SDS011;10913;51.992;9.228;2023-12-28T11:55:45;6.47;;;2.00;;
21503;SDS011;10913;51.992;9.228;2023-12-28T11:58:11;7.53;;;3.15;;
21503;SDS011;10913;51.992;9.228;2023-12-28T12:00:37;6.03;;;2.22;;
21503;SDS011;10913;51.992;9.228;2023-12-28T12:03:02;6.80;;;2.20;;
21503;SDS011;10913;51.992;9.228;2023-12-28T12:05:28;7.07;;;2.00;;
21503;SDS011;10913;51.992;9.228;2023-12-28T12:07:54;8.55;;;3.10;;
21503;SDS011;10913;51.992;9.228;2023-12-28T12:10:19;6.70;;;2.22;;
21503;SDS011;10913;51.992;9.228;2023-12-28T12:12:46;7.28;;;2.00;;
21503;SDS011;10913;51.992;9.228;2023-12-28T12:15:12;4.72;;;2.38;;
21503;SDS011;10913;51.992;9.228;2023-12-28T12:17:38;8.23;;;2.30;;
21503;SDS011;10913;51.992;9.228;2023-12-28T12:20:04;7.28;;;2.72;;
21503;SDS011;10913;51.992;9.228;2023-12-28T12:22:31;8.85;;;4.03;;
21503;SDS011;10913;51.992;9.228;2023-12-28T12:24:57;9.10;;;3.05;;
21503;SDS011;10913;51.992;9.228;2023-12-28T12:27:28;7.53;;;2.95;;
21503;SDS011;10913;51.992;9.228;2023-12-28T12:29:54;8.13;;;2.78;;
21503;SDS011;10913;51.992;9.228;2023-12-28T12:32:19;7.28;;;2.78;;
21503;SDS011;10913;51.992;9.228;2023-12-28T12:34:45;9.98;;;3.38;;
21503;SDS011;10913;51.992;9.228;2023-12-28T12:37:10;7.03;;;3.85;;
21503;SDS011;10913;51.992;9.228;2023-12-28T12:39:35;8.75;;;3.05;;
21503;SDS011;10913;51.992;9.228;2023-12-28T12:42:01;7.00;;;2.55;;
21503;SDS011;10913;51.992;9.228;2023-12-28T12:44:27;5.35;;;2.17;;
21503;SDS011;10913;51.992;9.228;2023-12-28T12:46:57;6.75;;;2.80;;
21503;SDS011;10913;51.992;9.228;2023-12-28T12:49:24;5.10;;;2.00;;
21503;SDS011;10913;51.992;9.228;2023-12-28T12:51:50;7.70;;;1.90;;
21503;SDS011;10913;51.992;9.228;2023-12-28T12:54:18;7.68;;;2.05;;
21503;SDS011;10913;51.992;9.228;2023-12-28T12:56:43;4.85;;;1.90;;
21503;SDS011;10913;51.992;9.228;2023-12-28T12:59:10;7.68;;;1.83;;
21503;SDS011;10913;51.992;9.228;2023-12-28T13:01:41;6.43;;;2.28;;
21503;SDS011;10913;51.992;9.228;2023-12-28T13:04:06;9.52;;;2.33;;
21503;SDS011;10913;51.992;9.228;2023-12-28T13:06:32;6.80;;;2.17;;
21503;SDS011;10913;51.992;9.228;2023-12-28T13:08:57;6.85;;;2.00;;
21503;SDS011;10913;51.992;9.228;2023-12-28T13:11:22;4.90;;;1.50;;
21503;SDS011;10913;51.992;9.228;2023-12-28T13:13:51;6.88;;;2.22;;
21503;SDS011;10913;51.992;9.228;2023-12-28T13:16:19;6.03;;;1.98;;
21503;SDS011;10913;51.992;9.228;2023-12-28T13:18:44;4.38;;;1.83;;
21503;SDS011;10913;51.992;9.228;2023-12-28T13:21:10;5.75;;;1.95;;
21503;SDS011;10913;51.992;9.228;2023-12-28T13:23:35;7.63;;;1.80;;
21503;SDS011;10913;51.992;9.228;2023-12-28T13:26:00;5.82;;;1.80;;
21503;SDS011;10913;51.992;9.228;2023-12-28T13:28:26;4.55;;;1.60;;
21503;SDS011;10913;51.992;9.228;2023-12-28T13:30:51;6.50;;;1.92;;
21503;SDS011;10913;51.992;9.228;2023-12-28T13:33:20;4.57;;;1.80;;
21503;SDS011;10913;51.992;9.228;2023-12-28T13:35:45;3.55;;;1.65;;
21503;SDS011;10913;51.992;9.228;2023-12-28T13:38:11;5.78;;;1.92;;
21503;SDS011;10913;51.992;9.228;2023-12-28T13:40:36;10.07;;;2.08;;
21503;SDS011;10913;51.992;9.228;2023-12-28T13:43:01;4.03;;;1.88;;
21503;SDS011;10913;51.992;9.228;2023-12-28T13:45:27;5.65;;;1.70;;
21503;SDS011;10913;51.992;9.228;2023-12-28T13:47:52;4.45;;;1.90;;
21503;SDS011;10913;51.992;9.228;2023-12-28T13:50:18;5.25;;;1.80;;
21503;SDS011;10913;51.992;9.228;2023-12-28T13:52:44;5.03;;;1.80;;
21503;SDS011;10913;51.992;9.228;2023-12-28T13:55:10;6.35;;;2.13;;
21503;SDS011;10913;51.992;9.228;2023-12-28T13:57:36;8.93;;;4.20;;
21503;SDS011;10913;51.992;9.228;2023-12-28T14:00:02;7.40;;;3.67;;
21503;SDS011;10913;51.992;9.228;2023-12-28T14:02:28;8.52;;;2.97;;
21503;SDS011;10913;51.992;9.228;2023-12-28T14:04:53;6.07;;;2.10;;
21503;SDS011;10913;51.992;9.228;2023-12-28T14:07:21;7.00;;;1.70;;
21503;SDS011;10913;51.992;9.228;2023-12-28T14:09:46;5.10;;;1.75;;
21503;SDS011;10913;51.992;9.228;2023-12-28T14:12:11;4.40;;;1.50;;
21503;SDS011;10913;51.992;9.228;2023-12-28T14:14:37;4.57;;;1.90;;
21503;SDS011;10913;51.992;9.228;2023-12-28T14:17:02;4.22;;;1.92;;
21503;SDS011;10913;51.992;9.228;2023-12-28T14:19:29;5.22;;;1.98;;
21503;SDS011;10913;51.992;9.228;2023-12-28T14:21:55;5.40;;;1.70;;
21503;SDS011;10913;51.992;9.228;2023-12-28T14:24:20;6.28;;;1.80;;
21503;SDS011;10913;51.992;9.228;2023-12-28T14:26:46;4.25;;;1.77;;
21503;SDS011;10913;51.992;9.228;2023-12-28T14:29:13;5.55;;;1.70;;
21503;SDS011;10913;51.992;9.228;2023-12-28T14:31:40;4.85;;;1.58;;
21503;SDS011;10913;51.992;9.228;2023-12-28T14:34:06;3.60;;;1.65;;
21503;SDS011;10913;51.992;9.228;2023-12-28T14:36:32;3.60;;;1.50;;
21503;SDS011;10913;51.992;9.228;2023-12-28T14:38:59;5.60;;;2.00;;
21503;SDS011;10913;51.992;9.228;2023-12-28T14:41:25;5.70;;;1.60;;
21503;SDS011;10913;51.992;9.228;2023-12-28T14:43:51;4.28;;;1.55;;
21503;SDS011;10913;51.992;9.228;2023-12-28T14:46:16;3.72;;;1.50;;
21503;SDS011;10913;51.992;9.228;2023-12-28T14:48:42;4.53;;;1.58;;
21503;SDS011;10913;51.992;9.228;2023-12-28T14:51:07;3.88;;;1.63;;